createdAt,value
2019-01-19T00:01:05.216Z,-0.09
2019-01-19T00:06:17.666Z,-0.29
2019-01-19T00:11:32.905Z,-0.32
2019-01-19T00:16:54.299Z,-0.25
2019-01-19T00:22:06.767Z,-0.42
2019-01-19T00:27:15.941Z,-0.21
2019-01-19T00:32:34.381Z,-0.32
2019-01-19T00:37:43.697Z,-0.40
2019-01-19T00:42:50.185Z,-0.36
2019-01-19T00:47:59.535Z,-0.38
2019-01-19T00:53:08.613Z,-0.36
2019-01-19T00:58:17.752Z,-0.51
2019-01-19T01:03:32.751Z,-0.34
2019-01-19T01:08:51.217Z,-0.49
2019-01-19T01:13:57.629Z,-0.40
2019-01-19T01:19:10.072Z,-0.34
2019-01-19T01:24:19.313Z,-0.39
2019-01-19T01:29:40.536Z,-0.32
2019-01-19T01:34:49.745Z,-0.22
2019-01-19T01:39:59.171Z,-0.26
2019-01-19T01:45:11.244Z,-0.30
2019-01-19T01:50:29.561Z,-0.22
2019-01-19T01:55:35.642Z,-0.39
2019-01-19T02:00:51.105Z,-0.37
2019-01-19T02:06:00.135Z,-0.59
2019-01-19T02:11:09.140Z,-0.49
2019-01-19T02:16:36.048Z,-0.59
2019-01-19T02:22:14.302Z,-0.50
2019-01-19T02:27:32.707Z,-0.55
2019-01-19T02:33:06.317Z,-0.32
2019-01-19T02:38:15.451Z,-0.25
2019-01-19T02:43:21.966Z,-0.26
2019-01-19T02:48:34.250Z,-0.31
2019-01-19T02:53:49.661Z,-0.22
2019-01-19T02:59:14.130Z,-0.27
2019-01-19T03:04:23.025Z,-0.42
2019-01-19T03:09:35.417Z,-0.36
2019-01-19T03:14:53.821Z,-0.56
2019-01-19T03:20:12.182Z,-0.59
2019-01-19T03:25:36.516Z,-0.67
2019-01-19T03:30:57.873Z,-0.76
2019-01-19T03:36:16.212Z,-0.90
2019-01-19T03:41:31.810Z,-0.71
2019-01-19T03:46:47.030Z,-0.63
2019-01-19T03:51:59.260Z,-0.45
2019-01-19T03:57:17.540Z,-0.56
2019-01-19T04:02:43.098Z,-0.59
2019-01-19T04:07:49.571Z,-0.49
2019-01-19T04:13:12.401Z,-0.47
2019-01-19T04:18:24.480Z,-0.58
2019-01-19T04:23:27.912Z,-0.50
2019-01-19T04:28:31.506Z,-0.64
2019-01-19T04:33:34.960Z,-0.68
2019-01-19T04:38:39.758Z,-0.67
2019-01-19T04:43:43.213Z,-0.65
2019-01-19T04:48:47.030Z,-0.86
2019-01-19T04:53:50.461Z,-0.80
2019-01-19T04:58:53.907Z,-0.94
2019-01-19T05:03:57.322Z,-1.19
2019-01-19T05:09:00.890Z,-1.19
2019-01-19T05:14:05.580Z,-1.04
2019-01-19T05:19:09.093Z,-0.99
2019-01-19T05:24:12.540Z,-0.96
2019-01-19T05:29:15.962Z,-1.19
2019-01-19T05:34:19.388Z,-1.28
2019-01-19T05:39:22.829Z,-1.33
2019-01-19T05:44:26.292Z,-1.29
2019-01-19T05:49:29.682Z,-1.30
2019-01-19T05:54:33.102Z,-1.21
2019-01-19T05:59:36.553Z,-1.19
2019-01-19T06:04:39.969Z,-1.20
2019-01-19T06:09:43.398Z,-1.17
2019-01-19T06:14:46.841Z,-1.02
2019-01-19T06:19:50.641Z,-1.00
2019-01-19T06:24:54.082Z,-0.95
2019-01-19T06:29:57.513Z,-0.96
2019-01-19T06:35:00.951Z,-0.88
2019-01-19T06:40:07.670Z,-0.95
2019-01-19T06:45:14.285Z,-0.86
2019-01-19T06:50:18.068Z,-0.97
2019-01-19T06:55:27.470Z,-1.01
2019-01-19T07:00:30.875Z,-1.12
2019-01-19T07:05:34.315Z,-1.19
2019-01-19T07:10:37.757Z,-1.06
2019-01-19T07:15:41.199Z,-0.90
2019-01-19T07:20:44.629Z,-0.92
2019-01-19T07:25:48.060Z,-0.86
2019-01-19T07:30:51.520Z,-0.87
2019-01-19T07:35:54.958Z,-0.89
2019-01-19T07:40:58.392Z,-0.90
2019-01-19T07:46:02.014Z,-1.03
2019-01-19T07:51:05.507Z,-1.10
2019-01-19T07:56:08.998Z,-1.19
2019-01-19T08:01:12.417Z,-1.24
2019-01-19T08:06:15.842Z,-1.17
2019-01-19T08:11:19.292Z,-1.27
2019-01-19T08:16:22.789Z,-1.35
2019-01-19T08:21:26.278Z,-1.21
2019-01-19T08:26:29.706Z,-1.08
2019-01-19T08:31:33.143Z,-1.11
2019-01-19T08:36:36.578Z,-1.19
2019-01-19T08:41:39.994Z,-1.18
2019-01-19T08:46:43.414Z,-1.24
2019-01-19T08:51:46.961Z,-1.29
2019-01-19T08:56:50.374Z,-1.34
2019-01-19T09:01:53.818Z,-1.45
2019-01-19T09:06:57.264Z,-1.54
2019-01-19T09:12:00.834Z,-1.57
2019-01-19T09:17:04.414Z,-1.53
2019-01-19T09:22:07.836Z,-1.52
2019-01-19T09:27:11.263Z,-1.30
2019-01-19T09:32:14.769Z,-1.07
2019-01-19T09:37:18.180Z,-0.95
2019-01-19T09:42:21.634Z,-0.70
2019-01-19T09:47:25.038Z,-0.49
2019-01-19T09:52:28.523Z,-0.50
2019-01-19T09:57:32.010Z,-0.37
2019-01-19T10:02:35.434Z,-0.04
2019-01-19T10:07:38.862Z,0.22
2019-01-19T10:12:42.416Z,0.59
2019-01-19T10:17:46.104Z,0.89
2019-01-19T10:22:49.591Z,1.44
2019-01-19T10:27:53.010Z,1.84
2019-01-19T10:32:56.547Z,1.79
2019-01-19T10:37:59.972Z,2.20
2019-01-19T10:43:03.686Z,2.34
2019-01-19T10:48:07.202Z,2.59
2019-01-19T10:53:10.757Z,2.68
2019-01-19T10:58:14.164Z,2.15
2019-01-19T11:03:17.726Z,2.14
2019-01-19T11:08:21.150Z,2.77
2019-01-19T11:13:24.603Z,3.16
2019-01-19T11:18:28.065Z,3.15
2019-01-19T11:23:31.567Z,2.85
2019-01-19T11:28:35.077Z,2.81
2019-01-19T11:33:38.531Z,2.83
2019-01-19T11:38:41.997Z,2.99
2019-01-19T11:43:45.445Z,2.72
2019-01-19T11:48:48.894Z,2.81
2019-01-19T11:53:52.408Z,2.70
2019-01-19T11:58:56.724Z,2.66
2019-01-19T12:04:00.288Z,3.11
2019-01-19T12:09:05.933Z,3.19
2019-01-19T12:14:09.425Z,2.85
2019-01-19T12:19:12.940Z,2.70
2019-01-19T12:24:16.385Z,2.54
2019-01-19T12:29:19.809Z,2.48
2019-01-19T12:34:23.301Z,2.43
2019-01-19T12:39:26.730Z,2.51
2019-01-19T12:44:30.227Z,2.68
2019-01-19T12:49:33.720Z,2.94
2019-01-19T12:54:37.153Z,3.13
2019-01-19T12:59:40.586Z,2.87
2019-01-19T13:04:43.997Z,3.00
2019-01-19T13:09:47.439Z,2.94
2019-01-19T13:14:53.895Z,2.96
2019-01-19T13:20:00.380Z,2.68
2019-01-19T13:25:09.836Z,2.71
2019-01-19T13:30:28.381Z,2.60
2019-01-19T13:35:52.923Z,2.65
2019-01-19T13:41:32.138Z,2.49
2019-01-19T13:47:04.018Z,2.63
2019-01-19T13:52:19.138Z,2.61
2019-01-19T13:57:43.487Z,2.54
2019-01-19T14:02:55.758Z,2.53
2019-01-19T14:08:05.058Z,2.48
2019-01-19T14:13:11.528Z,2.40
2019-01-19T14:18:24.023Z,2.40
2019-01-19T14:23:33.310Z,2.36
2019-01-19T14:28:54.189Z,2.30
2019-01-19T14:34:00.685Z,2.29
2019-01-19T14:39:21.848Z,2.30
2019-01-19T14:44:43.440Z,2.28
2019-01-19T14:50:02.028Z,2.31
2019-01-19T14:55:26.484Z,2.20
2019-01-19T15:00:32.977Z,2.18
2019-01-19T15:05:54.311Z,2.07
2019-01-19T15:11:00.905Z,1.98
2019-01-19T15:16:13.484Z,1.96
2019-01-19T15:21:45.086Z,1.87
2019-01-19T15:27:06.335Z,1.83
2019-01-19T15:32:12.812Z,1.78
2019-01-19T15:37:19.837Z,1.79
2019-01-19T15:42:41.251Z,1.63
2019-01-19T15:47:59.314Z,1.46
2019-01-19T15:53:11.207Z,1.40
2019-01-19T15:58:26.307Z,1.27
2019-01-19T16:03:59.988Z,1.17
2019-01-19T16:09:23.104Z,1.06
2019-01-19T16:14:47.661Z,0.90
2019-01-19T16:20:09.130Z,0.76
2019-01-19T16:25:27.443Z,0.69
2019-01-19T16:30:33.928Z,0.62
2019-01-19T16:35:46.108Z,0.50
2019-01-19T16:41:04.422Z,0.53
2019-01-19T16:46:16.505Z,0.52
2019-01-19T16:51:40.245Z,0.47
2019-01-19T16:56:49.443Z,0.30
2019-01-19T17:02:01.700Z,0.31
2019-01-19T17:07:30.352Z,0.17
2019-01-19T17:12:42.519Z,0.10
2019-01-19T17:18:09.501Z,0.03
2019-01-19T17:23:38.340Z,0.02
2019-01-19T17:28:47.808Z,-0.06
2019-01-19T17:34:02.921Z,-0.11
2019-01-19T17:39:18.216Z,-0.14
2019-01-19T17:44:36.494Z,-0.11
2019-01-19T17:49:45.904Z,-0.07
2019-01-19T17:55:16.385Z,-0.17
2019-01-19T18:00:48.368Z,-0.21
2019-01-19T18:05:54.850Z,-0.12
2019-01-19T18:11:24.690Z,-0.14
2019-01-19T18:17:02.421Z,-0.31
2019-01-19T18:22:32.490Z,-0.33
2019-01-19T18:27:44.499Z,-0.31
2019-01-19T18:32:56.174Z,-0.29
2019-01-19T18:38:29.078Z,-0.21
2019-01-19T18:44:08.297Z,-0.14
2019-01-19T18:49:23.568Z,-0.09
2019-01-19T18:54:49.304Z,-0.24
2019-01-19T19:00:21.036Z,-0.59
2019-01-19T19:05:33.035Z,-0.66
2019-01-19T19:10:45.189Z,-0.63
2019-01-19T19:16:08.180Z,-0.48
2019-01-19T19:21:26.312Z,-0.49
2019-01-19T19:26:58.305Z,-0.39
2019-01-19T19:32:28.633Z,-0.29
2019-01-19T19:37:41.983Z,-0.18
2019-01-19T19:42:57.356Z,-0.24
2019-01-19T19:48:21.877Z,-0.39
2019-01-19T19:53:25.396Z,-0.41
2019-01-19T19:58:28.828Z,-0.51
2019-01-19T20:03:32.252Z,-0.60
2019-01-19T20:08:35.764Z,-0.67
2019-01-19T20:13:39.191Z,-0.69
2019-01-19T20:18:42.722Z,-0.80
2019-01-19T20:23:46.223Z,-0.85
2019-01-19T20:28:49.645Z,-0.83
2019-01-19T20:33:53.135Z,-0.68
2019-01-19T20:38:56.580Z,-0.66
2019-01-19T20:44:00.081Z,-0.95
2019-01-19T20:49:03.605Z,-1.01
2019-01-19T20:54:07.055Z,-1.03
2019-01-19T20:59:10.497Z,-1.10
2019-01-19T21:04:15.856Z,-1.13
2019-01-19T21:09:19.080Z,-1.11
2019-01-19T21:14:23.521Z,-1.01
2019-01-19T21:19:27.000Z,-1.14
2019-01-19T21:24:30.444Z,-1.14
2019-01-19T21:29:33.954Z,-1.12
2019-01-19T21:34:37.387Z,-1.15
2019-01-19T21:39:40.906Z,-1.16
2019-01-19T21:44:44.388Z,-1.22
2019-01-19T21:49:47.817Z,-1.35
2019-01-19T21:54:51.232Z,-1.50
2019-01-19T21:59:54.702Z,-1.69
2019-01-19T22:04:58.134Z,-1.75
2019-01-19T22:10:01.610Z,-1.99
2019-01-19T22:15:08.097Z,-1.86
2019-01-19T22:20:13.775Z,-1.71
2019-01-19T22:25:17.281Z,-1.62
2019-01-19T22:30:22.628Z,-1.62
2019-01-19T22:35:27.595Z,-1.55
2019-01-19T22:40:31.035Z,-1.50
2019-01-19T22:45:34.464Z,-1.58
2019-01-19T22:50:37.890Z,-2.09
2019-01-19T22:55:41.322Z,-2.05
2019-01-19T23:01:00.242Z,-1.83
2019-01-19T23:06:03.743Z,-1.96
2019-01-19T23:11:07.172Z,-2.04
2019-01-19T23:16:10.620Z,-1.90
2019-01-19T23:21:14.114Z,-1.92
2019-01-19T23:26:18.009Z,-1.92
2019-01-19T23:31:21.509Z,-1.89
2019-01-19T23:36:24.975Z,-1.85
2019-01-19T23:41:28.429Z,-1.99
2019-01-19T23:46:31.855Z,-2.08
2019-01-19T23:51:35.299Z,-2.06
2019-01-19T23:56:38.738Z,-2.03
